sensor_id;sensor_type;location;lat;lon;timestamp;P1;durP1;ratioP1;P2;durP2;ratioP2
67737;SDS011;54534;43.612;1.572;2022-07-05T00:02:06;1.00;;;1.00;;
67737;SDS011;54534;43.612;1.572;2022-07-05T00:04:31;1.37;;;1.07;;
67737;SDS011;54534;43.612;1.572;2022-07-05T00:06:57;1.77;;;1.27;;
67737;SDS011;54534;43.612;1.572;2022-07-05T00:09:41;1.47;;;1.10;;
67737;SDS011;54534;43.612;1.572;2022-07-05T00:12:06;1.77;;;1.20;;
67737;SDS011;54534;43.612;1.572;2022-07-05T00:14:32;1.57;;;1.20;;
67737;SDS011;54534;43.612;1.572;2022-07-05T00:16:58;1.47;;;1.00;;
67737;SDS011;54534;43.612;1.572;2022-07-05T00:19:23;1.00;;;0.90;;
67737;SDS011;54534;43.612;1.572;2022-07-05T00:21:49;1.73;;;1.17;;
67737;SDS011;54534;43.612;1.572;2022-07-05T00:24:14;1.00;;;0.87;;
67737;SDS011;54534;43.612;1.572;2022-07-05T00:26:39;1.70;;;1.07;;
67737;SDS011;54534;43.612;1.572;2022-07-05T00:29:05;1.60;;;1.20;;
67737;SDS011;54534;43.612;1.572;2022-07-05T00:31:30;1.20;;;1.10;;
67737;SDS011;54534;43.612;1.572;2022-07-05T00:33:56;1.83;;;1.10;;
67737;SDS011;54534;43.612;1.572;2022-07-05T00:36:21;1.70;;;1.20;;
67737;SDS011;54534;43.612;1.572;2022-07-05T00:38:47;2.43;;;1.27;;
67737;SDS011;54534;43.612;1.572;2022-07-05T00:41:12;2.13;;;1.17;;
67737;SDS011;54534;43.612;1.572;2022-07-05T00:43:49;2.03;;;1.00;;
67737;SDS011;54534;43.612;1.572;2022-07-05T00:46:17;1.33;;;1.23;;
67737;SDS011;54534;43.612;1.572;2022-07-05T00:48:42;1.57;;;1.03;;
67737;SDS011;54534;43.612;1.572;2022-07-05T00:51:08;0.93;;;0.90;;
67737;SDS011;54534;43.612;1.572;2022-07-05T00:53:35;1.50;;;1.10;;
67737;SDS011;54534;43.612;1.572;2022-07-05T00:56:00;1.63;;;0.83;;
67737;SDS011;54534;43.612;1.572;2022-07-05T00:58:26;1.60;;;1.00;;
67737;SDS011;54534;43.612;1.572;2022-07-05T01:00:53;2.40;;;1.37;;
67737;SDS011;54534;43.612;1.572;2022-07-05T01:03:19;1.60;;;1.10;;
67737;SDS011;54534;43.612;1.572;2022-07-05T01:05:44;3.23;;;1.13;;
67737;SDS011;54534;43.612;1.572;2022-07-05T01:08:09;1.30;;;0.93;;
67737;SDS011;54534;43.612;1.572;2022-07-05T01:10:38;2.70;;;1.23;;
67737;SDS011;54534;43.612;1.572;2022-07-05T01:13:05;2.63;;;1.43;;
67737;SDS011;54534;43.612;1.572;2022-07-05T01:15:31;3.43;;;1.13;;
67737;SDS011;54534;43.612;1.572;2022-07-05T01:17:57;2.73;;;1.07;;
67737;SDS011;54534;43.612;1.572;2022-07-05T01:20:23;1.20;;;0.90;;
67737;SDS011;54534;43.612;1.572;2022-07-05T01:22:49;1.20;;;1.10;;
67737;SDS011;54534;43.612;1.572;2022-07-05T01:25:16;0.90;;;0.90;;
67737;SDS011;54534;43.612;1.572;2022-07-05T01:27:41;3.20;;;1.10;;
67737;SDS011;54534;43.612;1.572;2022-07-05T01:30:07;3.70;;;1.10;;
67737;SDS011;54534;43.612;1.572;2022-07-05T01:32:33;0.80;;;0.80;;
67737;SDS011;54534;43.612;1.572;2022-07-05T01:34:58;2.03;;;1.07;;
67737;SDS011;54534;43.612;1.572;2022-07-05T01:37:24;1.40;;;1.07;;
67737;SDS011;54534;43.612;1.572;2022-07-05T01:39:49;2.23;;;1.37;;
67737;SDS011;54534;43.612;1.572;2022-07-05T01:42:16;1.47;;;1.00;;
67737;SDS011;54534;43.612;1.572;2022-07-05T01:44:41;1.00;;;0.90;;
67737;SDS011;54534;43.612;1.572;2022-07-05T01:47:07;1.73;;;0.97;;
67737;SDS011;54534;43.612;1.572;2022-07-05T01:49:34;1.70;;;1.03;;
67737;SDS011;54534;43.612;1.572;2022-07-05T01:52:02;1.43;;;1.10;;
67737;SDS011;54534;43.612;1.572;2022-07-05T01:54:33;1.27;;;1.20;;
67737;SDS011;54534;43.612;1.572;2022-07-05T01:56:58;0.93;;;0.80;;
67737;SDS011;54534;43.612;1.572;2022-07-05T01:59:24;1.30;;;0.80;;
67737;SDS011;54534;43.612;1.572;2022-07-05T02:01:50;1.17;;;1.00;;
67737;SDS011;54534;43.612;1.572;2022-07-05T02:04:16;1.67;;;0.83;;
67737;SDS011;54534;43.612;1.572;2022-07-05T02:06:43;1.50;;;1.00;;
67737;SDS011;54534;43.612;1.572;2022-07-05T02:09:10;1.30;;;1.20;;
67737;SDS011;54534;43.612;1.572;2022-07-05T02:11:35;1.50;;;1.00;;
67737;SDS011;54534;43.612;1.572;2022-07-05T02:14:01;1.00;;;0.90;;
67737;SDS011;54534;43.612;1.572;2022-07-05T02:16:27;1.10;;;0.80;;
67737;SDS011;54534;43.612;1.572;2022-07-05T02:18:53;1.33;;;1.00;;
67737;SDS011;54534;43.612;1.572;2022-07-05T02:21:19;0.60;;;0.60;;
67737;SDS011;54534;43.612;1.572;2022-07-05T02:23:44;1.70;;;0.90;;
67737;SDS011;54534;43.612;1.572;2022-07-05T02:26:10;0.90;;;0.80;;
67737;SDS011;54534;43.612;1.572;2022-07-05T02:28:35;1.70;;;1.13;;
67737;SDS011;54534;43.612;1.572;2022-07-05T02:31:01;3.60;;;1.10;;
67737;SDS011;54534;43.612;1.572;2022-07-05T02:33:26;2.13;;;1.07;;
67737;SDS011;54534;43.612;1.572;2022-07-05T02:35:52;1.60;;;0.90;;
67737;SDS011;54534;43.612;1.572;2022-07-05T02:38:17;1.17;;;0.80;;
67737;SDS011;54534;43.612;1.572;2022-07-05T02:40:43;1.00;;;0.90;;
67737;SDS011;54534;43.612;1.572;2022-07-05T02:43:08;1.37;;;0.90;;
67737;SDS011;54534;43.612;1.572;2022-07-05T02:45:33;1.00;;;0.87;;
67737;SDS011;54534;43.612;1.572;2022-07-05T02:47:59;0.90;;;0.83;;
67737;SDS011;54534;43.612;1.572;2022-07-05T02:50:24;1.40;;;0.73;;
67737;SDS011;54534;43.612;1.572;2022-07-05T02:52:50;1.60;;;1.07;;
67737;SDS011;54534;43.612;1.572;2022-07-05T02:55:16;2.17;;;1.17;;
67737;SDS011;54534;43.612;1.572;2022-07-05T02:57:41;1.10;;;1.00;;
67737;SDS011;54534;43.612;1.572;2022-07-05T03:00:06;1.47;;;0.90;;
67737;SDS011;54534;43.612;1.572;2022-07-05T03:02:33;1.63;;;1.10;;
67737;SDS011;54534;43.612;1.572;2022-07-05T03:04:58;1.80;;;1.00;;
67737;SDS011;54534;43.612;1.572;2022-07-05T03:07:23;1.67;;;1.00;;
67737;SDS011;54534;43.612;1.572;2022-07-05T03:09:49;2.20;;;0.97;;
67737;SDS011;54534;43.612;1.572;2022-07-05T03:12:14;1.10;;;0.83;;
67737;SDS011;54534;43.612;1.572;2022-07-05T03:14:40;0.80;;;0.80;;
67737;SDS011;54534;43.612;1.572;2022-07-05T03:17:05;1.20;;;1.07;;
67737;SDS011;54534;43.612;1.572;2022-07-05T03:19:31;1.23;;;0.80;;
67737;SDS011;54534;43.612;1.572;2022-07-05T03:21:57;1.43;;;1.13;;
67737;SDS011;54534;43.612;1.572;2022-07-05T03:24:22;1.57;;;0.87;;
67737;SDS011;54534;43.612;1.572;2022-07-05T03:26:48;4.07;;;1.00;;
67737;SDS011;54534;43.612;1.572;2022-07-05T03:29:13;1.07;;;0.77;;
67737;SDS011;54534;43.612;1.572;2022-07-05T03:31:39;1.63;;;0.97;;
67737;SDS011;54534;43.612;1.572;2022-07-05T03:34:04;1.60;;;0.90;;
67737;SDS011;54534;43.612;1.572;2022-07-05T03:36:30;0.70;;;0.70;;
67737;SDS011;54534;43.612;1.572;2022-07-05T03:38:55;0.80;;;0.67;;
67737;SDS011;54534;43.612;1.572;2022-07-05T03:41:21;1.50;;;1.00;;
67737;SDS011;54534;43.612;1.572;2022-07-05T03:43:46;1.17;;;0.80;;
67737;SDS011;54534;43.612;1.572;2022-07-05T03:46:12;1.40;;;0.80;;
67737;SDS011;54534;43.612;1.572;2022-07-05T03:48:37;1.47;;;0.90;;
67737;SDS011;54534;43.612;1.572;2022-07-05T03:51:02;0.97;;;0.87;;
67737;SDS011;54534;43.612;1.572;2022-07-05T03:53:28;1.53;;;0.93;;
67737;SDS011;54534;43.612;1.572;2022-07-05T03:55:53;1.23;;;0.83;;
67737;SDS011;54534;43.612;1.572;2022-07-05T03:58:19;1.67;;;0.90;;
67737;SDS011;54534;43.612;1.572;2022-07-05T04:00:44;1.53;;;1.00;;
67737;SDS011;54534;43.612;1.572;2022-07-05T04:03:09;1.37;;;0.80;;
67737;SDS011;54534;43.612;1.572;2022-07-05T04:05:35;2.17;;;1.20;;
67737;SDS011;54534;43.612;1.572;2022-07-05T04:08:00;1.10;;;0.77;;
67737;SDS011;54534;43.612;1.572;2022-07-05T04:10:26;1.33;;;1.20;;
67737;SDS011;54534;43.612;1.572;2022-07-05T04:12:51;1.73;;;1.03;;
67737;SDS011;54534;43.612;1.572;2022-07-05T04:15:17;2.83;;;1.00;;
67737;SDS011;54534;43.612;1.572;2022-07-05T04:17:49;1.10;;;0.90;;
67737;SDS011;54534;43.612;1.572;2022-07-05T04:20:16;1.73;;;0.80;;
67737;SDS011;54534;43.612;1.572;2022-07-05T04:22:42;2.37;;;1.00;;
67737;SDS011;54534;43.612;1.572;2022-07-05T04:25:08;1.40;;;0.80;;
67737;SDS011;54534;43.612;1.572;2022-07-05T04:27:43;0.80;;;0.80;;
67737;SDS011;54534;43.612;1.572;2022-07-05T04:30:17;1.37;;;0.97;;
67737;SDS011;54534;43.612;1.572;2022-07-05T04:32:44;1.23;;;0.90;;
67737;SDS011;54534;43.612;1.572;2022-07-05T04:35:09;2.43;;;1.00;;
67737;SDS011;54534;43.612;1.572;2022-07-05T04:37:35;1.50;;;0.83;;
67737;SDS011;54534;43.612;1.572;2022-07-05T04:40:02;1.77;;;0.90;;
67737;SDS011;54534;43.612;1.572;2022-07-05T04:42:29;1.23;;;1.00;;
67737;SDS011;54534;43.612;1.572;2022-07-05T04:44:54;2.17;;;1.10;;
67737;SDS011;54534;43.612;1.572;2022-07-05T04:47:20;1.47;;;1.10;;
67737;SDS011;54534;43.612;1.572;2022-07-05T04:49:45;1.63;;;1.20;;
67737;SDS011;54534;43.612;1.572;2022-07-05T04:52:11;1.40;;;1.10;;
67737;SDS011;54534;43.612;1.572;2022-07-05T04:54:36;2.03;;;1.23;;
67737;SDS011;54534;43.612;1.572;2022-07-05T04:57:02;2.43;;;1.50;;
67737;SDS011;54534;43.612;1.572;2022-07-05T04:59:28;1.00;;;0.90;;
67737;SDS011;54534;43.612;1.572;2022-07-05T05:01:53;1.83;;;1.20;;
67737;SDS011;54534;43.612;1.572;2022-07-05T05:04:19;1.43;;;1.10;;
67737;SDS011;54534;43.612;1.572;2022-07-05T05:06:44;1.23;;;0.97;;
67737;SDS011;54534;43.612;1.572;2022-07-05T05:09:09;1.20;;;1.07;;
67737;SDS011;54534;43.612;1.572;2022-07-05T05:11:35;1.27;;;1.17;;
67737;SDS011;54534;43.612;1.572;2022-07-05T05:14:00;2.60;;;1.30;;
67737;SDS011;54534;43.612;1.572;2022-07-05T05:16:26;1.97;;;1.30;;
67737;SDS011;54534;43.612;1.572;2022-07-05T05:18:51;1.47;;;1.07;;
67737;SDS011;54534;43.612;1.572;2022-07-05T05:21:17;1.27;;;0.97;;
67737;SDS011;54534;43.612;1.572;2022-07-05T05:23:42;1.00;;;0.97;;
67737;SDS011;54534;43.612;1.572;2022-07-05T05:26:08;2.07;;;1.50;;
67737;SDS011;54534;43.612;1.572;2022-07-05T05:28:33;1.30;;;1.20;;
67737;SDS011;54534;43.612;1.572;2022-07-05T05:30:59;2.13;;;1.43;;
67737;SDS011;54534;43.612;1.572;2022-07-05T05:33:24;1.67;;;1.30;;
67737;SDS011;54534;43.612;1.572;2022-07-05T05:35:50;2.20;;;1.30;;
67737;SDS011;54534;43.612;1.572;2022-07-05T05:38:15;2.07;;;1.27;;
67737;SDS011;54534;43.612;1.572;2022-07-05T05:40:41;2.13;;;1.40;;
67737;SDS011;54534;43.612;1.572;2022-07-05T05:43:08;2.40;;;1.40;;
67737;SDS011;54534;43.612;1.572;2022-07-05T05:45:33;1.47;;;1.20;;
67737;SDS011;54534;43.612;1.572;2022-07-05T05:47:59;1.73;;;1.30;;
67737;SDS011;54534;43.612;1.572;2022-07-05T05:50:26;2.23;;;1.50;;
67737;SDS011;54534;43.612;1.572;2022-07-05T05:52:53;1.40;;;1.30;;
67737;SDS011;54534;43.612;1.572;2022-07-05T05:55:18;2.60;;;1.60;;
67737;SDS011;54534;43.612;1.572;2022-07-05T05:57:45;1.33;;;1.23;;
67737;SDS011;54534;43.612;1.572;2022-07-05T06:00:11;1.60;;;1.40;;
67737;SDS011;54534;43.612;1.572;2022-07-05T06:02:37;2.37;;;1.57;;
67737;SDS011;54534;43.612;1.572;2022-07-05T06:05:03;2.00;;;1.67;;
67737;SDS011;54534;43.612;1.572;2022-07-05T06:07:29;1.50;;;1.40;;
67737;SDS011;54534;43.612;1.572;2022-07-05T06:09:54;3.77;;;1.70;;
67737;SDS011;54534;43.612;1.572;2022-07-05T06:12:20;2.10;;;1.40;;
67737;SDS011;54534;43.612;1.572;2022-07-05T06:14:45;2.03;;;1.67;;
67737;SDS011;54534;43.612;1.572;2022-07-05T06:17:11;2.47;;;1.50;;
67737;SDS011;54534;43.612;1.572;2022-07-05T06:19:36;2.33;;;1.73;;
67737;SDS011;54534;43.612;1.572;2022-07-05T06:22:01;2.37;;;1.53;;
67737;SDS011;54534;43.612;1.572;2022-07-05T06:24:27;1.73;;;1.63;;
67737;SDS011;54534;43.612;1.572;2022-07-05T06:26:52;2.23;;;1.50;;
67737;SDS011;54534;43.612;1.572;2022-07-05T06:29:18;2.50;;;1.50;;
67737;SDS011;54534;43.612;1.572;2022-07-05T06:31:43;1.53;;;1.43;;
67737;SDS011;54534;43.612;1.572;2022-07-05T06:34:09;2.37;;;1.80;;
67737;SDS011;54534;43.612;1.572;2022-07-05T06:36:34;1.40;;;1.30;;
67737;SDS011;54534;43.612;1.572;2022-07-05T06:38:59;2.00;;;1.40;;
67737;SDS011;54534;43.612;1.572;2022-07-05T06:41:25;3.17;;;1.80;;
67737;SDS011;54534;43.612;1.572;2022-07-05T06:43:50;2.03;;;1.60;;
67737;SDS011;54534;43.612;1.572;2022-07-05T06:46:15;2.10;;;1.60;;
67737;SDS011;54534;43.612;1.572;2022-07-05T06:48:41;1.40;;;1.30;;
67737;SDS011;54534;43.612;1.572;2022-07-05T06:51:06;2.40;;;1.70;;
67737;SDS011;54534;43.612;1.572;2022-07-05T06:53:32;3.57;;;1.57;;
67737;SDS011;54534;43.612;1.572;2022-07-05T06:55:57;2.33;;;1.60;;
67737;SDS011;54534;43.612;1.572;2022-07-05T06:58:23;2.67;;;1.60;;
67737;SDS011;54534;43.612;1.572;2022-07-05T07:00:49;1.50;;;1.40;;
67737;SDS011;54534;43.612;1.572;2022-07-05T07:03:14;1.53;;;1.40;;
67737;SDS011;54534;43.612;1.572;2022-07-05T07:05:40;2.17;;;1.70;;
67737;SDS011;54534;43.612;1.572;2022-07-05T07:08:05;2.63;;;1.50;;
67737;SDS011;54534;43.612;1.572;2022-07-05T07:10:49;1.73;;;1.30;;
67737;SDS011;54534;43.612;1.572;2022-07-05T07:13:14;3.20;;;1.73;;
67737;SDS011;54534;43.612;1.572;2022-07-05T07:15:40;1.90;;;1.40;;
67737;SDS011;54534;43.612;1.572;2022-07-05T07:18:05;2.30;;;1.70;;
67737;SDS011;54534;43.612;1.572;2022-07-05T07:20:31;2.23;;;1.37;;
67737;SDS011;54534;43.612;1.572;2022-07-05T07:22:57;1.70;;;1.60;;
67737;SDS011;54534;43.612;1.572;2022-07-05T07:25:22;2.07;;;1.60;;
67737;SDS011;54534;43.612;1.572;2022-07-05T07:27:49;2.10;;;1.63;;
67737;SDS011;54534;43.612;1.572;2022-07-05T07:32:44;2.47;;;1.57;;
67737;SDS011;54534;43.612;1.572;2022-07-05T07:35:10;1.90;;;1.80;;
67737;SDS011;54534;43.612;1.572;2022-07-05T07:37:36;2.10;;;1.63;;
67737;SDS011;54534;43.612;1.572;2022-07-05T07:40:02;2.00;;;1.80;;
67737;SDS011;54534;43.612;1.572;2022-07-05T07:42:29;2.00;;;1.53;;
67737;SDS011;54534;43.612;1.572;2022-07-05T07:44:55;1.97;;;1.80;;
67737;SDS011;54534;43.612;1.572;2022-07-05T07:47:20;1.50;;;1.40;;
67737;SDS011;54534;43.612;1.572;2022-07-05T07:49:45;2.10;;;1.90;;
67737;SDS011;54534;43.612;1.572;2022-07-05T07:52:11;3.53;;;1.67;;
67737;SDS011;54534;43.612;1.572;2022-07-05T07:54:37;2.67;;;1.90;;
67737;SDS011;54534;43.612;1.572;2022-07-05T07:57:03;2.13;;;1.50;;
67737;SDS011;54534;43.612;1.572;2022-07-05T07:59:30;2.60;;;1.80;;
67737;SDS011;54534;43.612;1.572;2022-07-05T08:01:56;1.73;;;1.50;;
67737;SDS011;54534;43.612;1.572;2022-07-05T08:04:21;2.33;;;1.43;;
67737;SDS011;54534;43.612;1.572;2022-07-05T08:06:47;2.67;;;1.70;;
67737;SDS011;54534;43.612;1.572;2022-07-05T08:09:12;2.67;;;1.50;;
67737;SDS011;54534;43.612;1.572;2022-07-05T08:11:38;1.60;;;1.50;;
67737;SDS011;54534;43.612;1.572;2022-07-05T08:14:04;1.80;;;1.50;;
67737;SDS011;54534;43.612;1.572;2022-07-05T08:16:30;1.53;;;1.40;;
67737;SDS011;54534;43.612;1.572;2022-07-05T08:18:55;2.03;;;1.20;;
67737;SDS011;54534;43.612;1.572;2022-07-05T08:21:40;2.20;;;1.70;;
67737;SDS011;54534;43.612;1.572;2022-07-05T08:24:06;2.40;;;1.50;;
67737;SDS011;54534;43.612;1.572;2022-07-05T08:26:33;1.73;;;1.40;;
67737;SDS011;54534;43.612;1.572;2022-07-05T08:28:59;2.40;;;1.90;;
67737;SDS011;54534;43.612;1.572;2022-07-05T08:33:55;1.70;;;1.50;;
67737;SDS011;54534;43.612;1.572;2022-07-05T08:36:20;1.70;;;1.60;;
67737;SDS011;54534;43.612;1.572;2022-07-05T08:38:46;1.70;;;1.40;;
67737;SDS011;54534;43.612;1.572;2022-07-05T08:41:12;1.50;;;1.37;;
67737;SDS011;54534;43.612;1.572;2022-07-05T08:43:40;1.40;;;1.30;;
67737;SDS011;54534;43.612;1.572;2022-07-05T08:48:36;1.37;;;1.27;;
67737;SDS011;54534;43.612;1.572;2022-07-05T08:51:11;4.00;;;1.50;;
67737;SDS011;54534;43.612;1.572;2022-07-05T08:53:42;2.43;;;1.67;;
67737;SDS011;54534;43.612;1.572;2022-07-05T08:56:08;1.60;;;1.50;;
67737;SDS011;54534;43.612;1.572;2022-07-05T08:58:35;1.60;;;1.40;;
67737;SDS011;54534;43.612;1.572;2022-07-05T09:01:01;2.50;;;1.60;;
67737;SDS011;54534;43.612;1.572;2022-07-05T09:03:29;2.00;;;1.80;;
67737;SDS011;54534;43.612;1.572;2022-07-05T09:05:58;1.93;;;1.73;;
67737;SDS011;54534;43.612;1.572;2022-07-05T09:08:26;1.63;;;1.53;;
67737;SDS011;54534;43.612;1.572;2022-07-05T09:10:54;1.67;;;1.40;;
67737;SDS011;54534;43.612;1.572;2022-07-05T09:13:20;1.63;;;1.40;;
67737;SDS011;54534;43.612;1.572;2022-07-05T09:15:45;1.90;;;1.70;;
67737;SDS011;54534;43.612;1.572;2022-07-05T09:18:11;1.90;;;1.30;;
67737;SDS011;54534;43.612;1.572;2022-07-05T09:20:36;2.70;;;1.70;;
67737;SDS011;54534;43.612;1.572;2022-07-05T09:23:02;2.13;;;1.70;;
67737;SDS011;54534;43.612;1.572;2022-07-05T09:25:28;2.70;;;1.40;;
67737;SDS011;54534;43.612;1.572;2022-07-05T09:33:10;1.45;;;1.35;;
67737;SDS011;54534;43.612;1.572;2022-07-05T09:35:41;1.40;;;1.30;;
67737;SDS011;54534;43.612;1.572;2022-07-05T09:38:17;1.53;;;1.43;;
67737;SDS011;54534;43.612;1.572;2022-07-05T09:40:54;1.93;;;1.40;;
67737;SDS011;54534;43.612;1.572;2022-07-05T09:43:24;2.23;;;1.70;;
67737;SDS011;54534;43.612;1.572;2022-07-05T09:48:30;1.63;;;1.50;;
67737;SDS011;54534;43.612;1.572;2022-07-05T09:53:45;2.13;;;1.43;;
67737;SDS011;54534;43.612;1.572;2022-07-05T09:56:16;1.43;;;1.30;;
67737;SDS011;54534;43.612;1.572;2022-07-05T09:58:42;2.27;;;1.50;;
67737;SDS011;54534;43.612;1.572;2022-07-05T10:01:29;2.00;;;1.60;;
67737;SDS011;54534;43.612;1.572;2022-07-05T10:03:59;1.33;;;1.10;;
67737;SDS011;54534;43.612;1.572;2022-07-05T10:06:28;3.03;;;1.40;;
67737;SDS011;54534;43.612;1.572;2022-07-05T10:08:57;2.47;;;1.58;;
67737;SDS011;54534;43.612;1.572;2022-07-05T10:11:23;1.97;;;1.70;;
67737;SDS011;54534;43.612;1.572;2022-07-05T10:13:52;2.83;;;1.57;;
67737;SDS011;54534;43.612;1.572;2022-07-05T10:16:21;2.05;;;1.77;;
67737;SDS011;54534;43.612;1.572;2022-07-05T10:18:51;1.33;;;1.23;;
67737;SDS011;54534;43.612;1.572;2022-07-05T10:21:18;2.67;;;1.50;;
67737;SDS011;54534;43.612;1.572;2022-07-05T10:23:45;2.93;;;1.73;;
67737;SDS011;54534;43.612;1.572;2022-07-05T10:26:13;2.63;;;1.70;;
67737;SDS011;54534;43.612;1.572;2022-07-05T10:28:40;1.60;;;1.50;;
67737;SDS011;54534;43.612;1.572;2022-07-05T10:31:06;1.47;;;1.37;;
67737;SDS011;54534;43.612;1.572;2022-07-05T10:33:35;1.75;;;1.65;;
67737;SDS011;54534;43.612;1.572;2022-07-05T10:36:01;1.80;;;1.70;;
67737;SDS011;54534;43.612;1.572;2022-07-05T10:38:28;3.10;;;1.50;;
67737;SDS011;54534;43.612;1.572;2022-07-05T10:40:54;2.10;;;1.73;;
67737;SDS011;54534;43.612;1.572;2022-07-05T10:43:24;1.83;;;1.67;;
67737;SDS011;54534;43.612;1.572;2022-07-05T10:45:50;1.93;;;1.43;;
67737;SDS011;54534;43.612;1.572;2022-07-05T10:48:23;1.90;;;1.43;;
67737;SDS011;54534;43.612;1.572;2022-07-05T10:53:29;1.93;;;1.53;;
67737;SDS011;54534;43.612;1.572;2022-07-05T10:56:14;1.63;;;1.50;;
67737;SDS011;54534;43.612;1.572;2022-07-05T10:58:45;1.83;;;1.60;;
67737;SDS011;54534;43.612;1.572;2022-07-05T11:06:24;1.67;;;1.50;;
67737;SDS011;54534;43.612;1.572;2022-07-05T11:11:26;1.50;;;1.40;;
67737;SDS011;54534;43.612;1.572;2022-07-05T11:13:53;1.50;;;1.40;;
67737;SDS011;54534;43.612;1.572;2022-07-05T11:18:53;1.73;;;1.23;;
67737;SDS011;54534;43.612;1.572;2022-07-05T11:21:29;1.63;;;1.50;;
67737;SDS011;54534;43.612;1.572;2022-07-05T11:24:17;1.87;;;1.30;;
67737;SDS011;54534;43.612;1.572;2022-07-05T11:26:49;2.20;;;1.60;;
67737;SDS011;54534;43.612;1.572;2022-07-05T11:29:51;1.97;;;1.57;;
67737;SDS011;54534;43.612;1.572;2022-07-05T11:32:11;1.50;;;1.40;;
67737;SDS011;54534;43.612;1.572;2022-07-05T11:34:38;1.57;;;1.47;;
67737;SDS011;54534;43.612;1.572;2022-07-05T11:42:36;1.40;;;1.30;;
67737;SDS011;54534;43.612;1.572;2022-07-05T11:45:07;2.75;;;1.88;;
67737;SDS011;54534;43.612;1.572;2022-07-05T11:47:34;1.67;;;1.42;;
67737;SDS011;54534;43.612;1.572;2022-07-05T11:50:00;1.73;;;1.40;;
67737;SDS011;54534;43.612;1.572;2022-07-05T11:52:32;1.70;;;1.60;;
67737;SDS011;54534;43.612;1.572;2022-07-05T11:55:00;2.27;;;1.60;;
67737;SDS011;54534;43.612;1.572;2022-07-05T11:57:27;1.33;;;1.23;;
67737;SDS011;54534;43.612;1.572;2022-07-05T11:59:52;2.03;;;1.40;;
67737;SDS011;54534;43.612;1.572;2022-07-05T12:02:18;2.47;;;1.70;;
67737;SDS011;54534;43.612;1.572;2022-07-05T12:04:48;1.50;;;1.40;;
67737;SDS011;54534;43.612;1.572;2022-07-05T12:07:31;1.73;;;1.40;;
67737;SDS011;54534;43.612;1.572;2022-07-05T12:10:00;1.87;;;1.30;;
67737;SDS011;54534;43.612;1.572;2022-07-05T12:12:46;2.13;;;1.73;;
67737;SDS011;54534;43.612;1.572;2022-07-05T12:15:19;1.57;;;1.47;;
67737;SDS011;54534;43.612;1.572;2022-07-05T12:17:47;1.90;;;1.60;;
67737;SDS011;54534;43.612;1.572;2022-07-05T12:20:14;1.93;;;1.20;;
67737;SDS011;54534;43.612;1.572;2022-07-05T12:22:47;1.30;;;1.20;;
67737;SDS011;54534;43.612;1.572;2022-07-05T12:25:19;1.30;;;1.20;;
67737;SDS011;54534;43.612;1.572;2022-07-05T12:27:48;2.87;;;1.30;;
67737;SDS011;54534;43.612;1.572;2022-07-05T12:30:15;1.93;;;1.60;;
67737;SDS011;54534;43.612;1.572;2022-07-05T12:35:34;2.00;;;1.40;;
67737;SDS011;54534;43.612;1.572;2022-07-05T12:38:18;1.73;;;1.27;;
67737;SDS011;54534;43.612;1.572;2022-07-05T12:40:46;1.20;;;1.10;;
67737;SDS011;54534;43.612;1.572;2022-07-05T12:43:13;1.53;;;1.43;;
67737;SDS011;54534;43.612;1.572;2022-07-05T12:45:42;1.93;;;1.37;;
67737;SDS011;54534;43.612;1.572;2022-07-05T12:48:09;1.13;;;1.10;;
67737;SDS011;54534;43.612;1.572;2022-07-05T12:53:17;1.53;;;1.20;;
67737;SDS011;54534;43.612;1.572;2022-07-05T12:56:03;1.67;;;1.33;;
67737;SDS011;54534;43.612;1.572;2022-07-05T12:58:50;1.23;;;1.13;;
67737;SDS011;54534;43.612;1.572;2022-07-05T13:06:44;1.60;;;1.30;;
67737;SDS011;54534;43.612;1.572;2022-07-05T13:09:11;1.07;;;0.97;;
67737;SDS011;54534;43.612;1.572;2022-07-05T13:11:37;1.10;;;1.10;;
67737;SDS011;54534;43.612;1.572;2022-07-05T13:14:03;1.30;;;1.20;;
67737;SDS011;54534;43.612;1.572;2022-07-05T13:16:28;1.50;;;1.10;;
67737;SDS011;54534;43.612;1.572;2022-07-05T13:18:54;1.27;;;1.17;;
67737;SDS011;54534;43.612;1.572;2022-07-05T13:21:19;1.30;;;1.20;;
67737;SDS011;54534;43.612;1.572;2022-07-05T13:23:45;1.37;;;1.20;;
67737;SDS011;54534;43.612;1.572;2022-07-05T13:26:10;1.57;;;1.20;;
67737;SDS011;54534;43.612;1.572;2022-07-05T13:28:35;1.10;;;1.00;;
67737;SDS011;54534;43.612;1.572;2022-07-05T13:31:01;1.93;;;1.53;;
67737;SDS011;54534;43.612;1.572;2022-07-05T13:33:26;1.13;;;1.03;;
67737;SDS011;54534;43.612;1.572;2022-07-05T13:35:52;1.50;;;1.40;;
67737;SDS011;54534;43.612;1.572;2022-07-05T13:38:17;1.20;;;1.10;;
67737;SDS011;54534;43.612;1.572;2022-07-05T13:40:43;1.07;;;1.00;;
67737;SDS011;54534;43.612;1.572;2022-07-05T13:43:08;2.00;;;1.70;;
67737;SDS011;54534;43.612;1.572;2022-07-05T13:45:33;1.27;;;1.00;;
67737;SDS011;54534;43.612;1.572;2022-07-05T13:47:59;1.33;;;1.03;;
67737;SDS011;54534;43.612;1.572;2022-07-05T13:50:24;1.10;;;1.00;;
67737;SDS011;54534;43.612;1.572;2022-07-05T13:52:56;1.30;;;1.20;;
67737;SDS011;54534;43.612;1.572;2022-07-05T13:55:21;1.23;;;1.13;;
67737;SDS011;54534;43.612;1.572;2022-07-05T13:57:46;1.77;;;1.23;;
67737;SDS011;54534;43.612;1.572;2022-07-05T14:00:12;1.87;;;0.93;;
67737;SDS011;54534;43.612;1.572;2022-07-05T14:02:38;1.00;;;0.97;;
67737;SDS011;54534;43.612;1.572;2022-07-05T14:05:03;1.10;;;1.00;;
67737;SDS011;54534;43.612;1.572;2022-07-05T14:07:29;1.33;;;1.20;;
67737;SDS011;54534;43.612;1.572;2022-07-05T14:09:54;1.60;;;1.23;;
67737;SDS011;54534;43.612;1.572;2022-07-05T14:12:20;0.90;;;0.90;;
67737;SDS011;54534;43.612;1.572;2022-07-05T14:14:45;1.50;;;1.10;;
67737;SDS011;54534;43.612;1.572;2022-07-05T14:17:10;1.33;;;1.10;;
67737;SDS011;54534;43.612;1.572;2022-07-05T14:19:36;1.30;;;1.13;;
67737;SDS011;54534;43.612;1.572;2022-07-05T14:22:01;4.10;;;1.10;;
67737;SDS011;54534;43.612;1.572;2022-07-05T14:24:27;1.53;;;1.10;;
67737;SDS011;54534;43.612;1.572;2022-07-05T14:26:52;1.77;;;1.20;;
67737;SDS011;54534;43.612;1.572;2022-07-05T14:29:17;1.03;;;1.03;;
67737;SDS011;54534;43.612;1.572;2022-07-05T14:31:43;1.10;;;1.00;;
67737;SDS011;54534;43.612;1.572;2022-07-05T14:34:08;2.10;;;1.00;;
67737;SDS011;54534;43.612;1.572;2022-07-05T14:36:33;1.17;;;1.07;;
67737;SDS011;54534;43.612;1.572;2022-07-05T14:38:59;1.83;;;1.00;;
67737;SDS011;54534;43.612;1.572;2022-07-05T14:41:26;1.00;;;0.93;;
67737;SDS011;54534;43.612;1.572;2022-07-05T14:43:51;0.90;;;0.90;;
67737;SDS011;54534;43.612;1.572;2022-07-05T14:46:19;1.70;;;1.10;;
67737;SDS011;54534;43.612;1.572;2022-07-05T14:48:45;1.10;;;1.00;;
67737;SDS011;54534;43.612;1.572;2022-07-05T14:51:11;1.13;;;1.03;;
67737;SDS011;54534;43.612;1.572;2022-07-05T14:53:36;1.17;;;1.17;;
67737;SDS011;54534;43.612;1.572;2022-07-05T14:56:02;1.50;;;1.00;;
67737;SDS011;54534;43.612;1.572;2022-07-05T14:58:27;1.40;;;1.13;;
67737;SDS011;54534;43.612;1.572;2022-07-05T15:00:59;1.70;;;1.00;;
67737;SDS011;54534;43.612;1.572;2022-07-05T15:03:25;1.10;;;1.00;;
67737;SDS011;54534;43.612;1.572;2022-07-05T15:05:51;1.10;;;1.07;;
67737;SDS011;54534;43.612;1.572;2022-07-05T15:08:18;1.20;;;1.03;;
67737;SDS011;54534;43.612;1.572;2022-07-05T15:10:45;1.17;;;1.03;;
67737;SDS011;54534;43.612;1.572;2022-07-05T15:13:10;1.00;;;1.00;;
67737;SDS011;54534;43.612;1.572;2022-07-05T15:15:36;1.63;;;1.20;;
67737;SDS011;54534;43.612;1.572;2022-07-05T15:18:02;1.53;;;1.27;;
67737;SDS011;54534;43.612;1.572;2022-07-05T15:20:28;0.80;;;0.80;;
67737;SDS011;54534;43.612;1.572;2022-07-05T15:22:53;1.60;;;1.07;;
67737;SDS011;54534;43.612;1.572;2022-07-05T15:25:19;0.90;;;0.90;;
67737;SDS011;54534;43.612;1.572;2022-07-05T15:27:44;1.10;;;0.97;;
67737;SDS011;54534;43.612;1.572;2022-07-05T15:30:10;1.30;;;1.20;;
67737;SDS011;54534;43.612;1.572;2022-07-05T15:32:37;2.50;;;1.63;;
67737;SDS011;54534;43.612;1.572;2022-07-05T15:35:03;1.00;;;1.00;;